Time,TemperatureF,DewpointF,PressureIn,WindDirection,WindDirectionDegrees,WindSpeedMPH,WindSpeedGustMPH,Humidity,HourlyPrecipIn,Conditions,Clouds,dailyrainin,SoftwareType,DateUTC
2013-05-02 00:04:00,70.3,26.2,30.00,NW,315,0.0,0.0,19,0.00,,---,0.00,VWS V14.01,2013-05-02 07:04:00,
2013-05-02 00:09:00,70.2,26.0,30.00,NW,315,2.7,2.7,19,0.00,,---,0.00,VWS V14.01,2013-05-02 07:09:00,
2013-05-02 00:14:00,70.2,26.0,30.00,NW,315,3.4,3.4,19,0.00,,---,0.00,VWS V14.01,2013-05-02 07:14:00,
2013-05-02 00:19:00,70.2,26.0,30.00,WNW,292,1.6,1.6,19,0.00,,---,0.00,VWS V14.01,2013-05-02 07:19:00,
2013-05-02 00:25:00,70.2,26.0,30.00,North,0,2.2,2.2,19,0.00,,---,0.00,VWS V14.01,2013-05-02 07:25:00,
2013-05-02 00:30:00,70.5,26.3,30.00,North,0,2.0,2.0,19,0.00,,---,0.00,VWS V14.01,2013-05-02 07:30:00,
2013-05-02 00:35:00,70.3,26.2,30.00,NNW,338,0.9,3.1,19,0.00,,---,0.00,VWS V14.01,2013-05-02 07:35:00,
2013-05-02 00:40:00,70.2,26.0,30.00,North,0,2.0,2.9,19,0.00,,---,0.00,VWS V14.01,2013-05-02 07:40:00,
2013-05-02 00:45:00,70.0,25.9,30.00,NE,45,2.7,2.7,19,0.00,,---,0.00,VWS V14.01,2013-05-02 07:45:00,
2013-05-02 00:50:00,70.0,25.9,30.00,NW,315,2.5,2.7,19,0.00,,---,0.00,VWS V14.01,2013-05-02 07:50:00,
2013-05-02 00:55:00,70.0,25.9,30.00,NW,315,3.4,3.4,19,0.00,,---,0.00,VWS V14.01,2013-05-02 07:55:00,
2013-05-02 01:00:00,70.0,25.9,30.00,NE,45,3.4,3.4,19,0.00,,---,0.00,VWS V14.01,2013-05-02 08:00:00,
2013-05-02 01:05:00,70.0,25.9,30.00,NW,315,5.4,5.4,19,0.00,,---,0.00,VWS V14.01,2013-05-02 08:05:00,
2013-05-02 01:10:00,70.2,26.0,30.00,NNW,338,3.1,3.1,19,0.00,,---,0.00,VWS V14.01,2013-05-02 08:10:00,
2013-05-02 01:15:00,70.3,26.2,29.97,NW,315,4.7,4.7,19,0.00,,---,0.00,VWS V14.01,2013-05-02 08:15:00,
2013-05-02 01:20:00,70.3,26.2,29.97,NW,315,2.9,2.9,19,0.00,,---,0.00,VWS V14.01,2013-05-02 08:20:00,
2013-05-02 01:25:00,70.0,25.9,29.97,NNW,338,2.5,2.9,19,0.00,,---,0.00,VWS V14.01,2013-05-02 08:25:00,
2013-05-02 01:30:00,69.8,25.7,29.97,NNW,338,1.6,1.6,19,0.00,,---,0.00,VWS V14.01,2013-05-02 08:30:00,
2013-05-02 01:36:00,69.6,26.8,29.97,NW,315,3.4,3.4,20,0.00,,---,0.00,VWS V14.01,2013-05-02 08:36:00,
2013-05-02 01:41:00,69.6,26.8,29.97,NNW,338,2.7,2.7,20,0.00,,---,0.00,VWS V14.01,2013-05-02 08:41:00,
2013-05-02 01:46:00,69.8,25.7,29.97,WNW,292,2.0,3.1,19,0.00,,---,0.00,VWS V14.01,2013-05-02 08:46:00,
2013-05-02 01:51:00,69.6,26.8,29.97,NW,315,1.1,1.1,20,0.00,,---,0.00,VWS V14.01,2013-05-02 08:51:00,
2013-05-02 01:56:00,69.1,26.4,29.97,NW,315,2.9,2.9,20,0.00,,---,0.00,VWS V14.01,2013-05-02 08:56:00,
2013-05-02 02:01:00,68.7,26.1,29.97,NW,315,1.1,2.7,20,0.00,,---,0.00,VWS V14.01,2013-05-02 09:01:00,
2013-05-02 02:06:00,68.7,26.1,29.97,NW,315,1.3,1.3,20,0.00,,---,0.00,VWS V14.01,2013-05-02 09:06:00,
2013-05-02 02:11:00,68.7,26.1,29.97,WNW,292,2.5,2.5,20,0.00,,---,0.00,VWS V14.01,2013-05-02 09:11:00,
2013-05-02 02:16:00,68.7,26.1,29.97,ENE,68,2.5,2.5,20,0.00,,---,0.00,VWS V14.01,2013-05-02 09:16:00,
2013-05-02 02:21:00,68.5,25.9,29.97,North,0,2.0,3.4,20,0.00,,---,0.00,VWS V14.01,2013-05-02 09:21:00,
2013-05-02 02:26:00,68.5,25.9,29.97,WNW,292,3.1,3.1,20,0.00,,---,0.00,VWS V14.01,2013-05-02 09:26:00,
2013-05-02 02:31:00,68.5,25.9,29.97,NNW,338,2.9,4.0,20,0.00,,---,0.00,VWS V14.01,2013-05-02 09:31:00,
2013-05-02 02:36:00,68.7,26.1,29.97,NNW,338,2.7,3.1,20,0.00,,---,0.00,VWS V14.01,2013-05-02 09:36:00,
2013-05-02 02:41:00,69.1,26.4,29.97,NW,315,5.8,5.8,20,0.00,,---,0.00,VWS V14.01,2013-05-02 09:41:00,
2013-05-02 02:46:00,69.4,26.7,30.00,NW,315,9.8,9.8,20,0.00,,---,0.00,VWS V14.01,2013-05-02 09:46:00,
2013-05-02 02:52:00,69.4,26.7,30.00,West,270,4.3,5.6,20,0.00,,---,0.00,VWS V14.01,2013-05-02 09:52:00,
2013-05-02 02:57:00,69.3,22.6,30.00,WNW,292,4.5,4.5,17,0.00,,---,0.00,VWS V14.01,2013-05-02 09:57:00,
2013-05-02 03:02:00,69.1,22.5,30.00,North,0,6.0,6.0,17,0.00,,---,0.00,VWS V14.01,2013-05-02 10:02:00,
2013-05-02 03:07:00,69.4,22.8,30.00,NW,315,8.5,8.5,17,0.00,,---,0.00,VWS V14.01,2013-05-02 10:07:00,
2013-05-02 03:12:00,69.6,22.9,30.00,NE,45,5.8,8.7,17,0.00,,---,0.00,VWS V14.01,2013-05-02 10:12:00,
2013-05-02 03:17:00,69.4,22.8,30.00,NNE,22,4.7,4.7,17,0.00,,---,0.00,VWS V14.01,2013-05-02 10:17:00,
2013-05-02 03:22:00,69.3,22.6,30.00,WNW,292,7.6,7.6,17,0.00,,---,0.00,VWS V14.01,2013-05-02 10:22:00,
2013-05-02 03:27:00,69.1,22.5,30.00,NW,315,6.0,6.0,17,0.00,,---,0.00,VWS V14.01,2013-05-02 10:27:00,
2013-05-02 03:32:00,68.9,22.3,30.00,NNW,338,6.3,6.3,17,0.00,,---,0.00,VWS V14.01,2013-05-02 10:32:00,
2013-05-02 03:37:00,69.1,22.5,30.00,West,270,5.4,5.6,17,0.00,,---,0.00,VWS V14.01,2013-05-02 10:37:00,
2013-05-02 03:42:00,69.1,22.5,30.00,WNW,292,7.2,7.2,17,0.00,,---,0.00,VWS V14.01,2013-05-02 10:42:00,
2013-05-02 03:47:00,69.1,22.5,30.00,North,0,5.6,5.6,17,0.00,,---,0.00,VWS V14.01,2013-05-02 10:47:00,
2013-05-02 03:52:00,69.1,22.5,30.00,NNW,338,6.3,6.3,17,0.00,,---,0.00,VWS V14.01,2013-05-02 10:52:00,
2013-05-02 03:57:00,69.1,22.5,30.00,NW,315,9.4,9.4,17,0.00,,---,0.00,VWS V14.01,2013-05-02 10:57:00,
2013-05-02 04:02:00,69.1,22.5,30.00,North,0,9.4,9.4,17,0.00,,---,0.00,VWS V14.01,2013-05-02 11:02:00,
2013-05-02 04:07:00,68.9,22.3,30.00,NW,315,5.4,6.5,17,0.00,,---,0.00,VWS V14.01,2013-05-02 11:07:00,
2013-05-02 04:13:00,68.7,22.2,30.00,NNW,338,3.4,8.1,17,0.00,,---,0.00,VWS V14.01,2013-05-02 11:13:00,
2013-05-02 04:18:00,68.4,21.9,30.00,NW,315,10.7,10.7,17,0.00,,---,0.00,VWS V14.01,2013-05-02 11:18:00,
2013-05-02 04:23:00,68.4,21.9,30.00,NW,315,5.4,5.8,17,0.00,,---,0.00,VWS V14.01,2013-05-02 11:23:00,
2013-05-02 04:28:00,68.4,21.9,30.00,NW,315,7.6,7.6,17,0.00,,---,0.00,VWS V14.01,2013-05-02 11:28:00,
2013-05-02 04:33:00,68.2,21.7,30.00,NNW,338,6.3,6.3,17,0.00,,---,0.00,VWS V14.01,2013-05-02 11:33:00,
2013-05-02 04:38:00,68.0,21.6,30.00,North,0,8.1,11.0,17,0.00,,---,0.00,VWS V14.01,2013-05-02 11:38:00,
2013-05-02 04:43:00,68.0,21.6,30.00,NNW,338,5.4,5.4,17,0.00,,---,0.00,VWS V14.01,2013-05-02 11:43:00,
2013-05-02 04:48:00,67.8,21.5,30.03,NW,315,5.8,10.5,17,0.00,,---,0.00,VWS V14.01,2013-05-02 11:48:00,
2013-05-02 04:53:00,67.5,21.2,30.03,North,0,10.3,10.3,17,0.00,,---,0.00,VWS V14.01,2013-05-02 11:53:00,
2013-05-02 04:58:00,67.3,21.0,30.03,NNW,338,10.3,10.3,17,0.00,,---,0.00,VWS V14.01,2013-05-02 11:58:00,
2013-05-02 05:03:00,67.3,21.0,30.00,NNW,338,6.3,11.2,17,0.00,,---,0.00,VWS V14.01,2013-05-02 12:03:00,
2013-05-02 05:08:00,67.1,20.9,30.00,NNW,338,10.1,10.1,17,0.00,,---,0.00,VWS V14.01,2013-05-02 12:08:00,
2013-05-02 05:13:00,67.1,20.9,30.00,NW,315,6.5,6.5,17,0.00,,---,0.00,VWS V14.01,2013-05-02 12:13:00,
2013-05-02 05:18:00,67.1,20.9,30.03,NNW,338,14.8,14.8,17,0.00,,---,0.00,VWS V14.01,2013-05-02 12:18:00,
2013-05-02 05:24:00,66.9,20.7,30.03,NNW,338,14.8,14.8,17,0.00,,---,0.00,VWS V14.01,2013-05-02 12:24:00,
2013-05-02 05:29:00,66.9,20.7,30.03,WNW,292,7.6,7.6,17,0.00,,---,0.00,VWS V14.01,2013-05-02 12:29:00,
2013-05-02 05:34:00,66.7,20.6,30.03,NNW,338,8.1,12.3,17,0.00,,---,0.00,VWS V14.01,2013-05-02 12:34:00,
2013-05-02 05:39:00,66.4,20.3,30.03,West,270,6.5,6.5,17,0.00,,---,0.00,VWS V14.01,2013-05-02 12:39:00,
2013-05-02 05:44:00,66.4,20.3,30.03,NNE,22,7.8,7.8,17,0.00,,---,0.00,VWS V14.01,2013-05-02 12:44:00,
2013-05-02 05:49:00,66.4,20.3,30.03,NNW,338,8.7,11.0,17,0.00,,---,0.00,VWS V14.01,2013-05-02 12:49:00,
2013-05-02 05:54:00,66.7,20.6,30.03,NNW,338,17.0,17.0,17,0.00,,---,0.00,VWS V14.01,2013-05-02 12:54:00,
2013-05-02 05:59:00,66.6,20.4,30.03,WNW,292,6.9,8.7,17,0.00,,---,0.00,VWS V14.01,2013-05-02 12:59:00,
2013-05-02 06:04:00,66.4,20.3,30.03,NW,315,7.8,10.1,17,0.00,,---,0.00,VWS V14.01,2013-05-02 13:04:00,
2013-05-02 06:09:00,66.4,20.3,30.03,ENE,68,8.5,10.7,17,0.00,,---,0.00,VWS V14.01,2013-05-02 13:09:00,
2013-05-02 06:14:00,66.4,20.3,30.03,North,0,10.5,10.5,17,0.00,,---,0.00,VWS V14.01,2013-05-02 13:14:00,
2013-05-02 06:19:00,66.6,20.4,30.03,NNW,338,8.7,10.1,17,0.00,,---,0.00,VWS V14.01,2013-05-02 13:19:00,
2013-05-02 06:24:00,66.7,20.6,30.03,WNW,292,8.7,8.7,17,0.00,,---,0.00,VWS V14.01,2013-05-02 13:24:00,
2013-05-02 06:29:00,67.1,20.9,30.03,WNW,292,7.4,7.4,17,0.00,,---,0.00,VWS V14.01,2013-05-02 13:29:00,
2013-05-02 06:34:00,67.3,21.0,30.03,WNW,292,12.3,12.3,17,0.00,,---,0.00,VWS V14.01,2013-05-02 13:34:00,
2013-05-02 06:39:00,67.6,21.3,30.03,NNW,338,9.0,9.0,17,0.00,,---,0.00,VWS V14.01,2013-05-02 13:39:00,
2013-05-02 06:44:00,68.0,21.6,30.06,NW,315,10.3,10.3,17,0.00,,---,0.00,VWS V14.01,2013-05-02 13:44:00,
2013-05-02 06:50:00,68.4,21.9,30.06,NNW,338,5.8,12.1,17,0.00,,---,0.00,VWS V14.01,2013-05-02 13:50:00,
2013-05-02 06:55:00,68.7,22.2,30.06,West,270,10.5,10.5,17,0.00,,---,0.00,VWS V14.01,2013-05-02 13:55:00,
2013-05-02 07:00:00,69.1,22.5,30.06,NNE,22,9.6,9.6,17,0.00,,---,0.00,VWS V14.01,2013-05-02 14:00:00,
2013-05-02 07:05:00,69.4,22.8,30.06,WNW,292,7.6,7.6,17,0.00,,---,0.00,VWS V14.01,2013-05-02 14:05:00,
2013-05-02 07:10:00,69.6,22.9,30.06,NW,315,11.2,11.2,17,0.00,,---,0.00,VWS V14.01,2013-05-02 14:10:00,
2013-05-02 07:15:00,69.8,23.1,30.06,NW,315,6.7,10.7,17,0.00,,---,0.00,VWS V14.01,2013-05-02 14:15:00,
2013-05-02 07:20:00,69.8,23.1,30.06,NNW,338,7.6,7.6,17,0.00,,---,0.00,VWS V14.01,2013-05-02 14:20:00,
2013-05-02 07:25:00,70.2,23.4,30.06,NNW,338,6.5,7.2,17,0.00,,---,0.00,VWS V14.01,2013-05-02 14:25:00,
2013-05-02 07:30:00,70.5,23.6,30.06,NW,315,7.8,7.8,17,0.00,,---,0.00,VWS V14.01,2013-05-02 14:30:00,
2013-05-02 07:35:00,70.9,23.9,30.06,North,0,10.7,10.7,17,0.00,,---,0.00,VWS V14.01,2013-05-02 14:35:00,
2013-05-02 07:40:00,71.2,24.2,30.06,West,270,7.6,12.5,17,0.00,,---,0.00,VWS V14.01,2013-05-02 14:40:00,
2013-05-02 07:45:00,72.5,23.8,30.06,NW,315,8.5,8.5,16,0.00,,---,0.00,VWS V14.01,2013-05-02 14:45:00,
2013-05-02 07:50:00,73.6,24.7,30.06,NNW,338,12.8,12.8,16,0.00,,---,0.00,VWS V14.01,2013-05-02 14:50:00,
2013-05-02 07:55:00,74.7,25.5,30.06,NW,315,9.4,9.4,16,0.00,,---,0.00,VWS V14.01,2013-05-02 14:55:00,
2013-05-02 08:00:00,76.1,25.1,30.09,NNW,338,11.0,11.0,15,0.00,,---,0.00,VWS V14.01,2013-05-02 15:00:00,
2013-05-02 08:05:00,77.9,26.6,30.09,NNE,22,7.6,7.6,15,0.00,,---,0.00,VWS V14.01,2013-05-02 15:05:00,
2013-05-02 08:11:00,77.5,26.3,30.09,NNW,338,9.6,9.6,15,0.00,,---,0.00,VWS V14.01,2013-05-02 15:11:00,
2013-05-02 08:16:00,77.7,26.4,30.09,WSW,248,4.9,4.9,15,0.00,,---,0.00,VWS V14.01,2013-05-02 15:16:00,
2013-05-02 08:21:00,76.8,25.7,30.09,North,0,11.0,11.0,15,0.00,,---,0.00,VWS V14.01,2013-05-02 15:21:00,
2013-05-02 08:26:00,76.8,25.7,30.09,WNW,292,13.2,13.2,15,0.00,,---,0.00,VWS V14.01,2013-05-02 15:26:00,
2013-05-02 08:31:00,76.6,25.6,30.09,West,270,3.6,4.3,15,0.00,,---,0.00,VWS V14.01,2013-05-02 15:31:00,
2013-05-02 08:36:00,76.3,25.3,30.09,NNW,338,12.8,12.8,15,0.00,,---,0.00,VWS V14.01,2013-05-02 15:36:00,
2013-05-02 08:41:00,75.9,25.0,30.09,NNW,338,10.3,11.9,15,0.00,,---,0.00,VWS V14.01,2013-05-02 15:41:00,
2013-05-02 08:46:00,75.7,24.9,30.09,West,270,4.9,4.9,15,0.00,,---,0.00,VWS V14.01,2013-05-02 15:46:00,
2013-05-02 08:51:00,75.7,24.9,30.09,NNE,22,10.5,10.5,15,0.00,,---,0.00,VWS V14.01,2013-05-02 15:51:00,
2013-05-02 08:56:00,75.6,24.7,30.09,NW,315,7.2,8.5,15,0.00,,---,0.00,VWS V14.01,2013-05-02 15:56:00,
2013-05-02 09:01:00,75.7,24.9,30.09,NNW,338,6.0,6.0,15,0.00,,---,0.00,VWS V14.01,2013-05-02 16:01:00,
2013-05-02 09:06:00,75.9,25.0,30.09,NNW,338,7.6,7.6,15,0.00,,---,0.00,VWS V14.01,2013-05-02 16:06:00,
2013-05-02 09:11:00,76.1,25.1,30.09,ENE,68,7.8,7.8,15,0.00,,---,0.00,VWS V14.01,2013-05-02 16:11:00,
2013-05-02 09:16:00,76.1,25.1,30.09,NNE,22,8.1,8.1,15,0.00,,---,0.00,VWS V14.01,2013-05-02 16:16:00,
2013-05-02 09:21:00,76.5,25.4,30.09,North,0,7.2,7.8,15,0.00,,---,0.00,VWS V14.01,2013-05-02 16:21:00,
2013-05-02 09:27:00,76.6,25.6,30.09,NW,315,9.6,9.6,15,0.00,,---,0.00,VWS V14.01,2013-05-02 16:27:00,
2013-05-02 09:32:00,77.0,25.9,30.09,NW,315,15.7,15.7,15,0.00,,---,0.00,VWS V14.01,2013-05-02 16:32:00,
2013-05-02 09:37:00,76.6,25.6,30.09,NNW,338,9.4,9.4,15,0.00,,---,0.00,VWS V14.01,2013-05-02 16:37:00,
2013-05-02 09:42:00,77.0,25.9,30.09,NW,315,5.4,7.2,15,0.00,,---,0.00,VWS V14.01,2013-05-02 16:42:00,
2013-05-02 09:47:00,77.2,26.0,30.09,NNW,338,6.0,7.6,15,0.00,,---,0.00,VWS V14.01,2013-05-02 16:47:00,
2013-05-02 09:52:00,77.5,26.3,30.09,NNW,338,5.8,13.2,15,0.00,,---,0.00,VWS V14.01,2013-05-02 16:52:00,
2013-05-02 09:57:00,77.9,26.6,30.09,WNW,292,8.1,14.8,15,0.00,,---,0.00,VWS V14.01,2013-05-02 16:57:00,
2013-05-02 10:02:00,77.9,26.6,30.09,NNW,338,8.5,8.5,15,0.00,,---,0.00,VWS V14.01,2013-05-02 17:02:00,
2013-05-02 10:07:00,78.6,27.1,30.09,NNW,338,9.8,9.8,15,0.00,,---,0.00,VWS V14.01,2013-05-02 17:07:00,
2013-05-02 10:12:00,78.8,27.3,30.09,NNW,338,7.8,7.8,15,0.00,,---,0.00,VWS V14.01,2013-05-02 17:12:00,
2013-05-02 10:17:00,78.6,27.1,30.09,NW,315,11.0,11.0,15,0.00,,---,0.00,VWS V14.01,2013-05-02 17:17:00,
2013-05-02 10:22:00,79.0,27.4,30.09,NNW,338,9.8,9.8,15,0.00,,---,0.00,VWS V14.01,2013-05-02 17:22:00,
2013-05-02 10:27:00,79.5,27.9,30.09,NNE,22,9.6,9.6,15,0.00,,---,0.00,VWS V14.01,2013-05-02 17:27:00,
2013-05-02 10:33:00,79.9,28.1,30.09,NW,315,15.2,15.2,15,0.00,,---,0.00,VWS V14.01,2013-05-02 17:33:00,
2013-05-02 10:38:00,79.9,28.1,30.09,NW,315,13.2,13.2,15,0.00,,---,0.00,VWS V14.01,2013-05-02 17:38:00,
2013-05-02 10:43:00,80.2,28.4,30.09,North,0,7.6,7.6,15,0.00,,---,0.00,VWS V14.01,2013-05-02 17:43:00,
2013-05-02 10:48:00,80.6,27.0,30.09,NW,315,7.6,8.1,14,0.00,,---,0.00,VWS V14.01,2013-05-02 17:48:00,
2013-05-02 10:53:00,81.3,27.6,30.09,NW,315,6.0,10.5,14,0.00,,---,0.00,VWS V14.01,2013-05-02 17:53:00,
2013-05-02 10:58:00,81.5,27.8,30.09,North,0,4.3,13.0,14,0.00,,---,0.00,VWS V14.01,2013-05-02 17:58:00,
2013-05-02 11:03:00,81.9,28.0,30.09,NE,45,10.3,10.3,14,0.00,,---,0.00,VWS V14.01,2013-05-02 18:03:00,
2013-05-02 11:08:00,82.0,28.2,30.09,NW,315,6.3,7.6,14,0.00,,---,0.00,VWS V14.01,2013-05-02 18:08:00,
2013-05-02 11:13:00,82.2,28.3,30.09,North,0,12.1,12.1,14,0.00,,---,0.00,VWS V14.01,2013-05-02 18:13:00,
2013-05-02 11:18:00,82.6,28.6,30.06,NW,315,6.5,6.5,14,0.00,,---,0.00,VWS V14.01,2013-05-02 18:18:00,
2013-05-02 11:23:00,83.3,29.2,30.06,NW,315,5.6,5.6,14,0.00,,---,0.00,VWS V14.01,2013-05-02 18:23:00,
2013-05-02 11:28:00,83.5,29.3,30.06,North,0,7.4,9.6,14,0.00,,---,0.00,VWS V14.01,2013-05-02 18:28:00,
2013-05-02 11:33:00,83.5,29.3,30.06,NE,45,2.9,2.9,14,0.00,,---,0.00,VWS V14.01,2013-05-02 18:33:00,
2013-05-02 11:38:00,84.0,29.8,30.06,WNW,292,2.7,2.7,14,0.00,,---,0.00,VWS V14.01,2013-05-02 18:38:00,
2013-05-02 11:44:00,84.4,28.2,30.06,NNW,338,3.4,3.4,13,0.00,,---,0.00,VWS V14.01,2013-05-02 18:44:00,
2013-05-02 11:49:00,84.9,28.6,30.06,East,90,5.8,5.8,13,0.00,,---,0.00,VWS V14.01,2013-05-02 18:49:00,
2013-05-02 11:54:00,85.6,29.2,30.06,North,0,5.6,5.6,13,0.00,,---,0.00,VWS V14.01,2013-05-02 18:54:00,
2013-05-02 11:59:00,85.6,29.2,30.06,NE,45,3.8,3.8,13,0.00,,---,0.00,VWS V14.01,2013-05-02 18:59:00,
2013-05-02 12:04:00,85.8,29.4,30.06,SW,225,3.4,3.4,13,0.00,,---,0.00,VWS V14.01,2013-05-02 19:04:00,
2013-05-02 12:09:00,86.2,29.6,30.06,NW,315,6.5,7.4,13,0.00,,---,0.00,VWS V14.01,2013-05-02 19:09:00,
2013-05-02 12:14:00,86.2,29.6,30.06,NW,315,2.9,2.9,13,0.00,,---,0.00,VWS V14.01,2013-05-02 19:14:00,
2013-05-02 12:19:00,86.7,30.0,30.06,East,90,4.3,4.3,13,0.00,,---,0.00,VWS V14.01,2013-05-02 19:19:00,
2013-05-02 12:24:00,87.3,30.5,30.06,East,90,5.8,5.8,13,0.00,,---,0.00,VWS V14.01,2013-05-02 19:24:00,
2013-05-02 12:29:00,87.6,30.8,30.06,East,90,3.6,3.6,13,0.00,,---,0.00,VWS V14.01,2013-05-02 19:29:00,
2013-05-02 12:34:00,87.1,30.3,30.06,NNW,338,2.5,3.1,13,0.00,,---,0.00,VWS V14.01,2013-05-02 19:34:00,
2013-05-02 12:40:00,88.0,31.0,30.06,ENE,68,4.0,6.0,13,0.00,,---,0.00,VWS V14.01,2013-05-02 19:40:00,
2013-05-02 12:45:00,87.4,30.6,30.03,South,180,1.3,1.3,13,0.00,,---,0.00,VWS V14.01,2013-05-02 19:45:00,
2013-05-02 12:50:00,87.4,30.6,30.03,East,90,2.5,2.7,13,0.00,,---,0.00,VWS V14.01,2013-05-02 19:50:00,
2013-05-02 12:55:00,88.2,31.2,30.03,East,90,1.6,1.6,13,0.00,,---,0.00,VWS V14.01,2013-05-02 19:55:00,
2013-05-02 13:00:00,87.8,30.9,30.03,North,0,4.3,4.3,13,0.00,,---,0.00,VWS V14.01,2013-05-02 20:00:00,
2013-05-02 13:05:00,88.3,31.3,30.03,North,0,3.1,4.3,13,0.00,,---,0.00,VWS V14.01,2013-05-02 20:05:00,
2013-05-02 13:10:00,88.7,31.6,30.03,WSW,248,2.9,2.9,13,0.00,,---,0.00,VWS V14.01,2013-05-02 20:10:00,
2013-05-02 13:15:00,88.7,31.6,30.03,NW,315,2.5,2.5,13,0.00,,---,0.00,VWS V14.01,2013-05-02 20:15:00,
2013-05-02 13:20:00,89.1,31.9,30.03,NW,315,2.0,2.0,13,0.00,,---,0.00,VWS V14.01,2013-05-02 20:20:00,
2013-05-02 13:25:00,89.2,32.0,30.03,NW,315,4.3,4.3,13,0.00,,---,0.00,VWS V14.01,2013-05-02 20:25:00,
2013-05-02 13:30:00,90.0,30.6,30.03,West,270,1.6,1.6,12,0.00,,---,0.00,VWS V14.01,2013-05-02 20:30:00,
2013-05-02 13:35:00,90.3,30.9,30.03,SW,225,5.8,5.8,12,0.00,,---,0.00,VWS V14.01,2013-05-02 20:35:00,
2013-05-02 13:40:00,90.1,30.7,30.03,ESE,112,2.0,2.0,12,0.00,,---,0.00,VWS V14.01,2013-05-02 20:40:00,
2013-05-02 13:45:00,90.9,31.3,30.03,East,90,4.0,4.0,12,0.00,,---,0.00,VWS V14.01,2013-05-02 20:45:00,
2013-05-02 13:51:00,90.5,31.0,30.03,East,90,2.0,2.0,12,0.00,,---,0.00,VWS V14.01,2013-05-02 20:51:00,
2013-05-02 13:56:00,90.3,30.9,30.03,ENE,68,2.0,2.0,12,0.00,,---,0.00,VWS V14.01,2013-05-02 20:56:00,
2013-05-02 14:01:00,91.0,31.4,30.03,SE,135,5.6,5.6,12,0.00,,---,0.00,VWS V14.01,2013-05-02 21:01:00,
2013-05-02 14:06:00,91.8,32.0,30.03,East,90,6.3,6.3,12,0.00,,---,0.00,VWS V14.01,2013-05-02 21:06:00,
2013-05-02 14:11:00,92.1,32.3,30.03,ESE,112,6.0,6.0,12,0.00,,---,0.00,VWS V14.01,2013-05-02 21:11:00,
2013-05-02 14:16:00,91.8,32.0,30.00,North,0,4.3,4.3,12,0.00,,---,0.00,VWS V14.01,2013-05-02 21:16:00,
2013-05-02 14:21:00,92.1,32.3,30.00,NE,45,5.4,7.4,12,0.00,,---,0.00,VWS V14.01,2013-05-02 21:21:00,
2013-05-02 14:26:00,92.7,32.7,30.00,NE,45,7.8,7.8,12,0.00,,---,0.00,VWS V14.01,2013-05-02 21:26:00,
2013-05-02 14:31:00,92.1,32.3,30.00,East,90,5.6,5.8,12,0.00,,---,0.00,VWS V14.01,2013-05-02 21:31:00,
2013-05-02 14:36:00,91.6,31.9,30.00,SE,135,2.9,3.4,12,0.00,,---,0.00,VWS V14.01,2013-05-02 21:36:00,
2013-05-02 14:41:00,92.3,32.4,30.00,East,90,1.6,3.6,12,0.00,,---,0.00,VWS V14.01,2013-05-02 21:41:00,
2013-05-02 14:46:00,93.0,33.0,30.00,ENE,68,1.6,1.6,12,0.00,,---,0.00,VWS V14.01,2013-05-02 21:46:00,
2013-05-02 14:51:00,93.4,31.1,30.00,NE,45,4.9,4.9,11,0.00,,---,0.00,VWS V14.01,2013-05-02 21:51:00,
2013-05-02 14:57:00,93.6,31.2,30.00,ESE,112,4.3,4.3,11,0.00,,---,0.00,VWS V14.01,2013-05-02 21:57:00,
2013-05-02 15:02:00,93.7,31.4,30.00,SE,135,3.8,4.9,11,0.00,,---,0.00,VWS V14.01,2013-05-02 22:02:00,
2013-05-02 15:07:00,94.1,31.6,30.00,SW,225,2.0,2.0,11,0.00,,---,0.00,VWS V14.01,2013-05-02 22:07:00,
2013-05-02 15:12:00,94.3,31.8,30.00,ENE,68,1.1,4.0,11,0.00,,---,0.00,VWS V14.01,2013-05-02 22:12:00,
2013-05-02 15:17:00,94.5,31.9,29.97,WSW,248,2.9,4.3,11,0.00,,---,0.00,VWS V14.01,2013-05-02 22:17:00,
2013-05-02 15:22:00,94.3,31.8,29.97,East,90,1.6,4.9,11,0.00,,---,0.00,VWS V14.01,2013-05-02 22:22:00,
2013-05-02 15:27:00,94.3,31.8,29.97,South,180,2.7,3.1,11,0.00,,---,0.00,VWS V14.01,2013-05-02 22:27:00,
2013-05-02 15:32:00,94.5,31.9,29.97,SE,135,2.9,2.9,11,0.00,,---,0.00,VWS V14.01,2013-05-02 22:32:00,
2013-05-02 15:37:00,94.5,31.9,29.97,SW,225,5.8,5.8,11,0.00,,---,0.00,VWS V14.01,2013-05-02 22:37:00,
2013-05-02 15:42:00,94.1,31.6,29.97,SW,225,3.1,3.1,11,0.00,,---,0.00,VWS V14.01,2013-05-02 22:42:00,
2013-05-02 15:47:00,93.7,31.4,29.97,ESE,112,1.6,1.6,11,0.00,,---,0.00,VWS V14.01,2013-05-02 22:47:00,
2013-05-02 15:52:00,93.7,37.4,29.97,SSE,158,1.6,3.6,14,0.00,,---,0.00,VWS V14.01,2013-05-02 22:52:00,
2013-05-02 15:57:00,94.1,37.7,29.97,SSW,202,2.2,2.2,14,0.00,,---,0.00,VWS V14.01,2013-05-02 22:57:00,
2013-05-02 16:03:00,93.9,37.5,29.97,SW,225,6.3,6.3,14,0.00,,---,0.00,VWS V14.01,2013-05-02 23:03:00,
2013-05-02 16:08:00,93.7,37.4,29.97,South,180,3.1,3.4,14,0.00,,---,0.00,VWS V14.01,2013-05-02 23:08:00,
2013-05-02 16:13:00,93.6,31.2,29.97,SW,225,3.1,3.1,11,0.00,,---,0.00,VWS V14.01,2013-05-02 23:13:00,
2013-05-02 16:18:00,93.6,37.3,29.97,NE,45,1.1,1.1,14,0.00,,---,0.00,VWS V14.01,2013-05-02 23:18:00,
2013-05-02 16:23:00,93.7,37.4,29.97,SSE,158,1.1,1.1,14,0.00,,---,0.00,VWS V14.01,2013-05-02 23:23:00,
2013-05-02 16:28:00,93.7,37.4,29.97,NNE,22,2.9,2.9,14,0.00,,---,0.00,VWS V14.01,2013-05-02 23:28:00,
2013-05-02 16:33:00,93.2,31.0,29.97,South,180,2.9,3.6,11,0.00,,---,0.00,VWS V14.01,2013-05-02 23:33:00,
2013-05-02 16:38:00,93.4,37.1,29.97,SW,225,3.8,3.8,14,0.00,,---,0.00,VWS V14.01,2013-05-02 23:38:00,
2013-05-02 16:43:00,93.6,37.3,29.97,SSE,158,1.3,3.8,14,0.00,,---,0.00,VWS V14.01,2013-05-02 23:43:00,
2013-05-02 16:48:00,94.1,37.7,29.97,SSE,158,2.7,2.7,14,0.00,,---,0.00,VWS V14.01,2013-05-02 23:48:00,
2013-05-02 16:53:00,94.8,38.2,29.97,East,90,4.0,5.6,14,0.00,,---,0.00,VWS V14.01,2013-05-02 23:53:00,
2013-05-02 16:58:00,94.6,32.0,29.97,East,90,5.4,5.4,11,0.00,,---,0.00,VWS V14.01,2013-05-02 23:58:00,
2013-05-02 17:03:00,93.0,33.0,29.97,East,90,2.5,2.5,12,0.00,,---,0.00,VWS V14.01,2013-05-03 00:03:00,
2013-05-02 17:08:00,94.5,31.9,29.97,SW,225,6.5,6.5,11,0.00,,---,0.00,VWS V14.01,2013-05-03 00:08:00,
2013-05-02 17:13:00,95.0,32.3,29.97,SSW,202,1.3,1.3,11,0.00,,---,0.00,VWS V14.01,2013-05-03 00:13:00,
2013-05-02 17:19:00,95.5,32.7,29.97,SSW,202,2.0,2.9,11,0.00,,---,0.00,VWS V14.01,2013-05-03 00:19:00,
2013-05-02 17:24:00,95.9,39.1,29.97,SW,225,3.1,3.1,14,0.00,,---,0.00,VWS V14.01,2013-05-03 00:24:00,
2013-05-02 17:29:00,95.9,33.0,29.97,South,180,2.2,2.2,11,0.00,,---,0.00,VWS V14.01,2013-05-03 00:29:00,
2013-05-02 17:34:00,96.1,39.2,29.97,South,180,2.5,2.5,14,0.00,,---,0.00,VWS V14.01,2013-05-03 00:34:00,
2013-05-02 17:39:00,95.7,39.0,29.97,SE,135,4.5,4.5,14,0.00,,---,0.00,VWS V14.01,2013-05-03 00:39:00,
2013-05-02 17:44:00,95.2,38.5,29.97,East,90,2.7,5.8,14,0.00,,---,0.00,VWS V14.01,2013-05-03 00:44:00,
2013-05-02 17:49:00,94.5,31.9,29.97,ESE,112,3.4,3.8,11,0.00,,---,0.00,VWS V14.01,2013-05-03 00:49:00,
2013-05-02 17:54:00,93.9,31.5,29.97,South,180,2.5,3.1,11,0.00,,---,0.00,VWS V14.01,2013-05-03 00:54:00,
2013-05-02 17:59:00,93.4,31.1,29.97,SE,135,3.8,4.3,11,0.00,,---,0.00,VWS V14.01,2013-05-03 00:59:00,
2013-05-02 18:04:00,93.0,33.0,29.97,SE,135,5.6,11.2,12,0.00,,---,0.00,VWS V14.01,2013-05-03 01:04:00,
2013-05-02 18:09:00,93.0,33.0,29.97,ENE,68,2.7,2.7,12,0.00,,---,0.00,VWS V14.01,2013-05-03 01:09:00,
2013-05-02 18:14:00,92.7,32.7,29.97,SE,135,6.3,6.3,12,0.00,,---,0.00,VWS V14.01,2013-05-03 01:14:00,
2013-05-02 18:19:00,92.1,32.3,29.97,SE,135,4.0,4.0,12,0.00,,---,0.00,VWS V14.01,2013-05-03 01:19:00,
2013-05-02 18:24:00,91.2,31.6,29.97,SE,135,3.8,3.8,12,0.00,,---,0.00,VWS V14.01,2013-05-03 01:24:00,
2013-05-02 18:29:00,90.1,30.7,29.97,SE,135,1.6,2.9,12,0.00,,---,0.00,VWS V14.01,2013-05-03 01:29:00,
2013-05-02 18:34:00,89.2,32.0,29.97,South,180,2.0,2.5,13,0.00,,---,0.00,VWS V14.01,2013-05-03 01:34:00,
2013-05-02 18:39:00,88.2,31.2,29.97,ESE,112,3.4,3.4,13,0.00,,---,0.00,VWS V14.01,2013-05-03 01:39:00,
2013-05-02 18:45:00,87.1,30.3,29.97,SE,135,7.4,7.4,13,0.00,,---,0.00,VWS V14.01,2013-05-03 01:45:00,
2013-05-02 18:50:00,86.2,29.6,29.97,SE,135,3.1,3.1,13,0.00,,---,0.00,VWS V14.01,2013-05-03 01:50:00,
2013-05-02 18:55:00,85.1,28.8,29.97,SSW,202,1.6,5.4,13,0.00,,---,0.00,VWS V14.01,2013-05-03 01:55:00,
2013-05-02 19:00:00,84.6,28.4,29.97,SE,135,1.1,1.1,13,0.00,,---,0.00,VWS V14.01,2013-05-03 02:00:00,
2013-05-02 19:05:00,83.7,29.5,29.97,East,90,1.6,1.6,14,0.00,,---,0.00,VWS V14.01,2013-05-03 02:05:00,
2013-05-02 19:10:00,82.8,28.8,29.97,SSW,202,0.0,0.0,14,0.00,,---,0.00,VWS V14.01,2013-05-03 02:10:00,
2013-05-02 19:15:00,82.2,28.3,29.97,NW,315,2.5,3.4,14,0.00,,---,0.00,VWS V14.01,2013-05-03 02:15:00,
2013-05-02 19:20:00,81.7,27.9,29.97,WSW,248,0.0,0.0,14,0.00,,---,0.00,VWS V14.01,2013-05-03 02:20:00,
2013-05-02 19:25:00,81.0,27.3,29.97,SW,225,2.0,2.0,14,0.00,,---,0.00,VWS V14.01,2013-05-03 02:25:00,
2013-05-02 19:30:00,80.4,28.6,29.97,NW,315,1.3,1.3,15,0.00,,---,0.00,VWS V14.01,2013-05-03 02:30:00,
2013-05-02 19:35:00,80.6,27.0,29.97,NNW,338,3.8,3.8,14,0.00,,---,0.00,VWS V14.01,2013-05-03 02:35:00,
2013-05-02 19:40:00,80.6,27.0,29.97,West,270,0.9,1.6,14,0.00,,---,0.00,VWS V14.01,2013-05-03 02:40:00,
2013-05-02 19:45:00,80.2,28.4,29.97,SW,225,1.1,1.1,15,0.00,,---,0.00,VWS V14.01,2013-05-03 02:45:00,
2013-05-02 19:51:00,79.7,28.0,29.97,SSW,202,4.3,4.3,15,0.00,,---,0.00,VWS V14.01,2013-05-03 02:51:00,
2013-05-02 19:56:00,79.2,27.6,29.97,West,270,1.1,1.6,15,0.00,,---,0.00,VWS V14.01,2013-05-03 02:56:00,
2013-05-02 20:01:00,78.6,27.1,29.97,SW,225,2.0,2.5,15,0.00,,---,0.00,VWS V14.01,2013-05-03 03:01:00,
2013-05-02 20:06:00,78.1,26.7,29.97,NNW,338,2.0,2.0,15,0.00,,---,0.00,VWS V14.01,2013-05-03 03:06:00,
2013-05-02 20:11:00,78.3,26.9,29.97,NW,315,3.8,3.8,15,0.00,,---,0.00,VWS V14.01,2013-05-03 03:11:00,
2013-05-02 20:16:00,78.1,26.7,30.00,NW,315,2.2,2.7,15,0.00,,---,0.00,VWS V14.01,2013-05-03 03:16:00,
2013-05-02 20:21:00,78.3,26.9,30.00,WNW,292,3.4,3.4,15,0.00,,---,0.00,VWS V14.01,2013-05-03 03:21:00,
2013-05-02 20:26:00,77.9,26.6,30.00,West,270,2.5,2.5,15,0.00,,---,0.00,VWS V14.01,2013-05-03 03:26:00,
2013-05-02 20:31:00,77.7,26.4,29.97,WNW,292,2.7,3.6,15,0.00,,---,0.00,VWS V14.01,2013-05-03 03:31:00,
2013-05-02 20:36:00,77.5,26.3,29.97,NW,315,4.3,4.3,15,0.00,,---,0.00,VWS V14.01,2013-05-03 03:36:00,
2013-05-02 20:41:00,77.4,26.1,29.97,NW,315,2.9,2.9,15,0.00,,---,0.00,VWS V14.01,2013-05-03 03:41:00,
2013-05-02 20:46:00,77.2,26.0,30.00,NW,315,2.2,2.2,15,0.00,,---,0.00,VWS V14.01,2013-05-03 03:46:00,
2013-05-02 20:51:00,77.2,26.0,30.00,North,0,2.0,2.0,15,0.00,,---,0.00,VWS V14.01,2013-05-03 03:51:00,
2013-05-02 20:56:00,77.0,25.9,30.00,NNE,22,1.3,1.3,15,0.00,,---,0.00,VWS V14.01,2013-05-03 03:56:00,
2013-05-02 21:01:00,76.8,25.7,30.00,NW,315,1.3,1.3,15,0.00,,---,0.00,VWS V14.01,2013-05-03 04:01:00,
2013-05-02 21:07:00,76.6,25.6,30.00,NW,315,1.1,1.1,15,0.00,,---,0.00,VWS V14.01,2013-05-03 04:07:00,
2013-05-02 21:12:00,75.9,25.0,30.00,NNE,22,1.3,1.3,15,0.00,,---,0.00,VWS V14.01,2013-05-03 04:12:00,
2013-05-02 21:17:00,74.7,25.5,30.00,NE,45,1.3,1.3,16,0.00,,---,0.00,VWS V14.01,2013-05-03 04:17:00,
2013-05-02 21:22:00,74.1,25.1,30.00,NE,45,0.0,0.0,16,0.00,,---,0.00,VWS V14.01,2013-05-03 04:22:00,
2013-05-02 21:27:00,73.9,25.0,30.00,North,0,1.3,1.3,16,0.00,,---,0.00,VWS V14.01,2013-05-03 04:27:00,
2013-05-02 21:32:00,74.1,25.1,30.00,NW,315,1.3,1.3,16,0.00,,---,0.00,VWS V14.01,2013-05-03 04:32:00,
2013-05-02 21:37:00,73.8,24.8,30.00,North,0,1.3,1.3,16,0.00,,---,0.00,VWS V14.01,2013-05-03 04:37:00,
2013-05-02 21:42:00,73.6,24.7,30.00,NE,45,0.0,0.0,16,0.00,,---,0.00,VWS V14.01,2013-05-03 04:42:00,
2013-05-02 21:47:00,73.2,24.4,30.00,NW,315,1.3,2.5,16,0.00,,---,0.00,VWS V14.01,2013-05-03 04:47:00,
2013-05-02 21:52:00,73.0,24.2,30.00,East,90,0.0,1.3,16,0.00,,---,0.00,VWS V14.01,2013-05-03 04:52:00,
2013-05-02 21:57:00,73.2,24.4,30.00,NNW,338,0.0,0.0,16,0.00,,---,0.00,VWS V14.01,2013-05-03 04:57:00,
2013-05-02 22:02:00,72.7,23.9,30.00,SW,225,0.0,0.0,16,0.00,,---,0.00,VWS V14.01,2013-05-03 05:02:00,
2013-05-02 22:07:00,72.0,23.4,30.00,WSW,248,1.1,1.1,16,0.00,,---,0.00,VWS V14.01,2013-05-03 05:07:00,
2013-05-02 22:13:00,71.8,23.2,30.00,West,270,1.3,1.3,16,0.00,,---,0.00,VWS V14.01,2013-05-03 05:13:00,
2013-05-02 22:18:00,71.6,23.1,30.00,WNW,292,1.1,1.1,16,0.00,,---,0.00,VWS V14.01,2013-05-03 05:18:00,
2013-05-02 22:23:00,71.2,24.2,30.00,WNW,292,0.0,0.0,17,0.00,,---,0.00,VWS V14.01,2013-05-03 05:23:00,
2013-05-02 22:28:00,70.7,23.8,30.00,WNW,292,0.0,0.0,17,0.00,,---,0.00,VWS V14.01,2013-05-03 05:28:00,
2013-05-02 22:33:00,70.2,23.4,30.00,WNW,292,1.3,1.3,17,0.00,,---,0.00,VWS V14.01,2013-05-03 05:33:00,
2013-05-02 22:38:00,70.5,23.6,30.00,NW,315,1.3,1.3,17,0.00,,---,0.00,VWS V14.01,2013-05-03 05:38:00,
2013-05-02 22:43:00,70.9,23.9,30.00,NNW,338,1.3,1.3,17,0.00,,---,0.00,VWS V14.01,2013-05-03 05:43:00,
2013-05-02 22:48:00,70.9,23.9,30.00,NW,315,0.0,0.0,17,0.00,,---,0.00,VWS V14.01,2013-05-03 05:48:00,
2013-05-02 22:53:00,70.2,23.4,30.00,WSW,248,0.0,0.0,17,0.00,,---,0.00,VWS V14.01,2013-05-03 05:53:00,
2013-05-02 22:58:00,69.8,23.1,30.00,West,270,2.2,2.2,17,0.00,,---,0.00,VWS V14.01,2013-05-03 05:58:00,
2013-05-02 23:03:00,69.3,22.6,30.00,SW,225,0.0,0.0,17,0.00,,---,0.00,VWS V14.01,2013-05-03 06:03:00,
2013-05-02 23:08:00,69.1,22.5,30.00,NNE,22,0.0,0.0,17,0.00,,---,0.00,VWS V14.01,2013-05-03 06:08:00,
2013-05-02 23:13:00,68.5,22.0,30.00,NNE,22,0.0,0.0,17,0.00,,---,0.00,VWS V14.01,2013-05-03 06:13:00,
2013-05-02 23:18:00,68.0,21.6,30.00,SSE,158,0.0,0.0,17,0.00,,---,0.00,VWS V14.01,2013-05-03 06:18:00,
2013-05-02 23:24:00,67.8,21.5,30.00,NW,315,1.6,1.6,17,0.00,,---,0.00,VWS V14.01,2013-05-03 06:24:00,
2013-05-02 23:29:00,67.8,21.5,30.00,West,270,0.0,0.0,17,0.00,,---,0.00,VWS V14.01,2013-05-03 06:29:00,
2013-05-02 23:34:00,67.5,21.2,30.00,SSW,202,0.0,0.0,17,0.00,,---,0.00,VWS V14.01,2013-05-03 06:34:00,
2013-05-02 23:39:00,67.1,20.9,30.00,North,0,2.5,2.5,17,0.00,,---,0.00,VWS V14.01,2013-05-03 06:39:00,
2013-05-02 23:44:00,66.9,20.7,30.00,NW,315,1.3,1.3,17,0.00,,---,0.00,VWS V14.01,2013-05-03 06:44:00,
2013-05-02 23:49:00,66.7,20.6,30.00,WNW,292,2.5,2.5,17,0.00,,---,0.00,VWS V14.01,2013-05-03 06:49:00,
2013-05-02 23:54:00,67.1,20.9,30.00,NW,315,1.6,1.6,17,0.00,,---,0.00,VWS V14.01,2013-05-03 06:54:00,
2013-05-02 23:59:00,67.1,20.9,30.00,SW,225,2.9,2.9,17,0.00,,---,0.00,VWS V14.01,2013-05-03 06:59:00,